Time;durP1;ratioP1;P1;durP2;ratioP2;P2;SDS_P1;SDS_P2;PMS_P1;PMS_P2;Temp;Humidity;BMP_temperature;BMP_pressure;BME280_temperature;BME280_humidity;BME280_pressure;Samples;Min_cycle;Max_cycle;Signal;HPM_P1;HPM_P2
2021/12/25 00:01:53;;;;;;;23.67;16.50;;;10.20;1.00;;;;;;5112148;28;20232;-86
2021/12/25 00:04:21;;;;;;;25.50;16.67;;;10.10;1.00;;;;;;5113798;27;20201;-84
2021/12/25 00:06:48;;;;;;;27.07;15.77;;;10.20;1.00;;;;;;5111703;28;20208;-81
2021/12/25 00:09:15;;;;;;;21.90;13.53;;;10.10;1.00;;;;;;5113120;28;20208;-87
2021/12/25 00:11:42;;;;;;;20.27;14.13;;;10.20;1.00;;;;;;5133008;27;20261;-76
2021/12/25 00:14:12;;;;;;;23.70;14.40;;;10.10;1.00;;;;;;5126009;27;20197;-75
2021/12/25 00:16:39;;;;;;;23.53;14.97;;;10.10;1.00;;;;;;5112783;28;20201;-81
2021/12/25 00:19:07;;;;;;;25.77;15.23;;;10.10;1.00;;;;;;5117391;28;20227;-87
2021/12/25 00:21:35;;;;;;;20.87;14.00;;;10.00;1.00;;;;;;5132760;27;20228;-83
2021/12/25 00:24:02;;;;;;;20.80;13.90;;;10.10;1.00;;;;;;5132338;27;20203;-85
2021/12/25 00:26:46;;;;;;;21.20;14.73;;;10.00;1.00;;;;;;5133009;28;20577;-83
2021/12/25 00:29:37;;;;;;;23.87;13.10;;;10.00;1.00;;;;;;5132556;28;20211;-82
2021/12/25 00:32:28;;;;;;;21.03;13.37;;;9.90;1.00;;;;;;5132385;28;20647;-81
2021/12/25 00:34:55;;;;;;;28.47;14.83;;;9.90;1.00;;;;;;5132219;27;20303;-82
2021/12/25 00:37:22;;;;;;;20.70;14.13;;;10.00;1.00;;;;;;5136715;27;20196;-82
2021/12/25 00:39:51;;;;;;;24.03;14.13;;;10.00;1.00;;;;;;5136288;27;20197;-81
2021/12/25 00:42:18;;;;;;;21.13;14.67;;;9.80;1.00;;;;;;5136764;27;20231;-83
2021/12/25 00:44:46;;;;;;;21.27;14.33;;;9.90;1.00;;;;;;5136828;27;20222;-87
2021/12/25 00:47:13;;;;;;;21.40;14.00;;;9.90;1.00;;;;;;5137144;27;20226;-83
2021/12/25 00:49:40;;;;;;;21.13;15.70;;;9.90;1.00;;;;;;5136877;27;20200;-83
2021/12/25 00:52:08;;;;;;;20.30;13.70;;;9.80;1.00;;;;;;5136955;27;20203;-84
2021/12/25 00:54:36;;;;;;;21.47;15.27;;;9.90;1.00;;;;;;5136575;27;20207;-83
2021/12/25 00:57:03;;;;;;;25.40;14.47;;;9.80;1.00;;;;;;5136159;27;20679;-80
2021/12/25 00:59:30;;;;;;;22.30;14.63;;;9.80;1.00;;;;;;5136466;27;20240;-82
2021/12/25 01:01:58;;;;;;;28.70;15.30;;;9.70;1.00;;;;;;5136345;27;20227;-86
2021/12/25 01:04:26;;;;;;;21.90;13.70;;;9.80;1.00;;;;;;5136444;27;20200;-86
2021/12/25 01:06:53;;;;;;;26.67;14.03;;;9.70;1.00;;;;;;5135776;27;20237;-88
2021/12/25 01:09:21;;;;;;;22.77;14.07;;;9.70;1.00;;;;;;5136815;27;20268;-89
2021/12/25 01:11:50;;;;;;;19.67;14.43;;;9.70;1.00;;;;;;5136201;27;20256;-87
2021/12/25 01:14:26;;;;;;;26.03;15.03;;;9.80;1.00;;;;;;5136569;27;20228;-86
2021/12/25 01:17:10;;;;;;;22.80;15.70;;;9.80;1.00;;;;;;5135891;27;20200;-88
2021/12/25 01:20:08;;;;;;;22.57;15.20;;;9.80;1.00;;;;;;5136645;27;20771;-87
2021/12/25 01:31:26;;;;;;;21.13;15.03;;;9.90;1.00;;;;;;5109198;27;21092;-81
2021/12/25 01:34:18;;;;;;;23.23;14.87;;;9.90;1.00;;;;;;5108587;28;20205;-81
2021/12/25 01:39:44;;;;;;;20.70;14.77;;;9.90;1.00;;;;;;5094759;28;20309;-80
2021/12/25 01:47:49;;;;;;;25.03;14.37;;;9.90;1.00;;;;;;5109019;28;20721;-88
2021/12/25 01:50:18;;;;;;;25.47;14.77;;;10.00;1.00;;;;;;5109124;28;20260;-88
2021/12/25 01:52:45;;;;;;;27.67;16.23;;;10.00;1.00;;;;;;5108790;28;20208;-80
2021/12/25 01:55:14;;;;;;;21.77;15.10;;;10.00;1.00;;;;;;5108590;28;20204;-82
2021/12/25 01:57:42;;;;;;;19.30;14.30;;;10.00;1.00;;;;;;5108674;28;20258;-84
2021/12/25 02:00:14;;;;;;;24.33;15.03;;;10.00;1.00;;;;;;5109513;28;20258;-86
2021/12/25 02:02:42;;;;;;;21.00;15.97;;;10.00;1.00;;;;;;5109367;28;20261;-86
2021/12/25 02:05:10;;;;;;;28.23;15.13;;;9.90;1.00;;;;;;5109062;28;20205;-87
2021/12/25 02:07:37;;;;;;;25.43;15.87;;;10.00;1.00;;;;;;5109417;28;20665;-86
2021/12/25 02:10:06;;;;;;;26.67;15.87;;;9.90;1.00;;;;;;5108975;28;20229;-85
2021/12/25 02:12:34;;;;;;;22.10;15.57;;;9.90;1.00;;;;;;5109230;28;20201;-85
2021/12/25 02:15:06;;;;;;;27.70;16.90;;;10.00;1.00;;;;;;5108708;28;20560;-85
2021/12/25 02:17:50;;;;;;;22.40;14.83;;;9.90;1.00;;;;;;5108690;28;20193;-85
2021/12/25 02:20:25;;;;;;;28.17;16.87;;;9.90;1.00;;;;;;5108556;28;20212;-85
2021/12/25 02:22:55;;;;;;;27.43;16.77;;;10.00;1.00;;;;;;5108558;28;20239;-85
2021/12/25 02:25:22;;;;;;;23.20;14.80;;;10.00;1.00;;;;;;5108768;28;20240;-88
2021/12/25 02:27:49;;;;;;;27.47;16.83;;;10.00;1.00;;;;;;5108821;28;20229;-89
2021/12/25 02:30:16;;;;;;;31.67;18.53;;;10.00;1.00;;;;;;5108815;28;20229;-85
2021/12/25 02:32:44;;;;;;;26.70;16.20;;;9.90;1.00;;;;;;5108236;28;20218;-82
2021/12/25 02:35:12;;;;;;;28.40;17.53;;;9.90;1.00;;;;;;5108388;28;20201;-84
2021/12/25 02:37:41;;;;;;;25.57;17.10;;;9.90;1.00;;;;;;5108365;28;20205;-80
2021/12/25 02:40:11;;;;;;;30.30;17.57;;;9.80;1.00;;;;;;5107719;28;20201;-78
2021/12/25 02:42:38;;;;;;;22.77;15.37;;;9.80;1.00;;;;;;5094508;28;20201;-78
2021/12/25 02:45:06;;;;;;;28.13;18.60;;;9.80;1.00;;;;;;5093710;28;20590;-79
2021/12/25 02:47:36;;;;;;;26.90;16.73;;;9.70;1.00;;;;;;5093886;28;20205;-79
2021/12/25 02:50:03;;;;;;;30.77;15.87;;;9.70;1.00;;;;;;5093309;28;20237;-79
2021/12/25 02:52:30;;;;;;;24.07;16.53;;;9.70;1.00;;;;;;5093786;28;20201;-78
2021/12/25 02:54:59;;;;;;;30.43;16.23;;;9.80;1.00;;;;;;5093429;28;20198;-79
2021/12/25 02:57:26;;;;;;;23.53;15.83;;;9.80;1.00;;;;;;5093689;28;20270;-78
2021/12/25 02:59:52;;;;;;;23.43;15.73;;;9.70;1.00;;;;;;5093261;28;20206;-78
2021/12/25 03:02:20;;;;;;;31.90;17.77;;;9.70;1.00;;;;;;5093743;28;20665;-78
2021/12/25 03:04:48;;;;;;;25.03;17.67;;;9.70;1.00;;;;;;5093044;28;20661;-78
2021/12/25 03:07:16;;;;;;;23.33;16.47;;;9.60;1.00;;;;;;5093488;28;20600;-79
2021/12/25 03:09:44;;;;;;;27.37;17.63;;;9.50;1.00;;;;;;5093111;28;20688;-78
2021/12/25 03:12:15;;;;;;;26.57;16.03;;;9.50;1.00;;;;;;5093322;28;20237;-79
2021/12/25 03:15:03;;;;;;;25.87;15.83;;;9.50;1.00;;;;;;5093853;28;20206;-75
2021/12/25 03:17:30;;;;;;;28.03;15.17;;;9.50;1.00;;;;;;5093899;28;20205;-81
2021/12/25 03:19:58;;;;;;;25.97;15.90;;;9.50;1.00;;;;;;5093909;28;20254;-86
2021/12/25 03:22:26;;;;;;;22.57;15.03;;;9.50;1.00;;;;;;5094063;28;20280;-84
2021/12/25 03:24:53;;;;;;;23.53;14.93;;;9.50;1.00;;;;;;5093809;28;20205;-85
2021/12/25 03:27:22;;;;;;;22.77;15.30;;;9.50;1.00;;;;;;5094271;28;20201;-85
2021/12/25 03:29:49;;;;;;;27.63;15.00;;;9.50;1.00;;;;;;5093199;28;20233;-84
2021/12/25 03:32:16;;;;;;;24.07;16.50;;;9.60;1.00;;;;;;5093550;28;20259;-78
2021/12/25 03:34:43;;;;;;;23.90;15.07;;;9.50;1.00;;;;;;5092722;28;20205;-77
2021/12/25 03:37:10;;;;;;;27.53;15.90;;;9.50;1.00;;;;;;5092917;28;20279;-79
2021/12/25 03:39:37;;;;;;;25.17;15.83;;;9.40;1.00;;;;;;5093553;28;20254;-80
2021/12/25 03:42:05;;;;;;;23.27;15.70;;;9.40;1.00;;;;;;5092802;28;20669;-80
2021/12/25 03:44:35;;;;;;;22.10;16.43;;;9.40;1.00;;;;;;5093141;28;20202;-82
2021/12/25 03:47:11;;;;;;;23.60;15.50;;;9.30;1.00;;;;;;5092749;28;20233;-83
2021/12/25 03:53:08;;;;;;;25.93;16.23;;;9.20;1.00;;;;;;5093450;28;20669;-82
2021/12/25 03:58:07;;;;;;;24.67;14.70;;;8.80;1.00;;;;;;5093019;28;20275;-83
2021/12/25 04:00:36;;;;;;;29.33;16.67;;;8.70;1.00;;;;;;5092826;28;20684;-77
2021/12/25 04:03:09;;;;;;;27.43;17.23;;;8.60;1.00;;;;;;5091867;28;20685;-76
2021/12/25 04:05:39;;;;;;;23.60;15.80;;;8.60;1.00;;;;;;5092869;28;20259;-81
2021/12/25 04:08:08;;;;;;;22.63;14.40;;;8.50;1.00;;;;;;5092853;28;20740;-79
2021/12/25 04:10:38;;;;;;;27.93;20.07;;;8.40;1.00;;;;;;5092618;28;20317;-81
2021/12/25 04:13:07;;;;;;;25.27;16.37;;;8.30;1.00;;;;;;5092209;28;20587;-79
2021/12/25 04:15:36;;;;;;;28.33;15.97;;;8.30;1.00;;;;;;5092388;28;20202;-79
2021/12/25 04:18:03;;;;;;;34.30;18.53;;;8.20;1.00;;;;;;5091935;28;20205;-79
2021/12/25 04:20:31;;;;;;;26.53;16.73;;;8.10;1.00;;;;;;5092298;28;20638;-78
2021/12/25 04:22:58;;;;;;;31.17;18.30;;;8.10;1.00;;;;;;5091755;28;20608;-79
2021/12/25 04:25:28;;;;;;;26.30;16.57;;;8.20;1.00;;;;;;5092155;28;20197;-79
2021/12/25 04:28:01;;;;;;;28.67;18.50;;;8.20;1.00;;;;;;5091554;28;20201;-79
2021/12/25 04:30:37;;;;;;;28.80;17.33;;;8.20;1.00;;;;;;5091528;28;20328;-79
2021/12/25 05:03:47;;;;;;;30.67;17.60;;;8.00;99.90;;;;;;5091656;28;20631;-81
2021/12/25 05:06:15;;;;;;;35.30;19.33;;;7.90;99.90;;;;;;5092204;28;20553;-82
2021/12/25 05:08:43;;;;;;;26.33;16.47;;;7.80;99.90;;;;;;5091563;28;20232;-81
2021/12/25 05:11:10;;;;;;;30.07;17.07;;;7.80;99.90;;;;;;5091760;28;20312;-80
2021/12/25 05:13:37;;;;;;;29.03;20.27;;;8.20;99.90;;;;;;5092116;28;20581;-83
2021/12/25 05:16:05;;;;;;;28.70;18.10;;;8.20;1.00;;;;;;5091662;28;20203;-81
2021/12/25 05:18:32;;;;;;;29.07;19.23;;;8.30;1.00;;;;;;5074785;28;20661;-80
2021/12/25 05:20:59;;;;;;;32.60;18.60;;;8.20;1.00;;;;;;5090682;28;20620;-77
2021/12/25 05:23:27;;;;;;;32.00;17.47;;;8.10;99.90;;;;;;5081755;28;20275;-76
2021/12/25 05:25:54;;;;;;;31.63;18.20;;;8.20;1.00;;;;;;5070725;28;20202;-78
2021/12/25 05:28:26;;;;;;;32.37;19.40;;;8.20;1.00;;;;;;5070715;28;20686;-79
2021/12/25 05:30:54;;;;;;;35.20;20.37;;;8.30;1.00;;;;;;5070359;28;20609;-77
2021/12/25 05:33:22;;;;;;;29.77;17.73;;;8.30;1.00;;;;;;5070946;28;20292;-77
2021/12/25 05:35:50;;;;;;;31.43;19.03;;;8.30;1.00;;;;;;5081219;28;20209;-76
2021/12/25 05:38:17;;;;;;;34.40;18.17;;;8.20;1.00;;;;;;5091121;28;20259;-76
2021/12/25 05:40:47;;;;;;;30.20;18.33;;;8.20;1.00;;;;;;5090669;28;20205;-78
2021/12/25 05:43:17;;;;;;;27.07;17.20;;;8.20;99.90;;;;;;5090841;28;20205;-78
2021/12/25 05:45:44;;;;;;;34.97;19.27;;;8.20;99.90;;;;;;5090584;28;20201;-80
2021/12/25 05:48:12;;;;;;;23.93;17.83;;;8.20;99.90;;;;;;5090993;28;20201;-77
2021/12/25 05:50:39;;;;;;;28.90;17.70;;;8.10;99.90;;;;;;5090885;28;20283;-76
2021/12/25 05:53:07;;;;;;;32.03;17.53;;;8.10;99.90;;;;;;5090495;28;20210;-76
2021/12/25 05:55:34;;;;;;;25.60;16.23;;;8.10;99.90;;;;;;5090758;28;20251;-78
2021/12/25 05:58:03;;;;;;;26.93;17.10;;;8.00;99.90;;;;;;5090143;28;20282;-78
2021/12/25 06:00:31;;;;;;;27.47;16.47;;;8.00;99.90;;;;;;5090664;28;20284;-80
2021/12/25 06:02:59;;;;;;;24.37;15.30;;;8.00;99.90;;;;;;5090413;28;20205;-79
2021/12/25 06:05:26;;;;;;;21.17;14.67;;;7.90;99.90;;;;;;5091028;28;20197;-79
2021/12/25 06:07:54;;;;;;;19.10;13.67;;;7.90;99.90;;;;;;5090654;28;20202;-80
2021/12/25 06:10:21;;;;;;;23.20;14.00;;;7.90;96.70;;;;;;5090751;28;20211;-80
2021/12/25 06:12:49;;;;;;;22.73;14.00;;;7.90;1.00;;;;;;5075649;28;20202;-80
2021/12/25 06:15:19;;;;;;;18.07;12.10;;;7.90;1.00;;;;;;5070742;28;20199;-81
2021/12/25 06:17:47;;;;;;;19.50;13.47;;;7.80;1.00;;;;;;5073970;28;20210;-79
2021/12/25 06:20:15;;;;;;;19.50;12.57;;;7.60;1.00;;;;;;5074939;28;20252;-82
2021/12/25 06:22:42;;;;;;;18.83;12.10;;;7.60;1.00;;;;;;5074767;28;20252;-80
2021/12/25 06:25:10;;;;;;;20.77;12.47;;;7.60;1.00;;;;;;5074691;28;20206;-81
2021/12/25 06:27:37;;;;;;;20.67;13.53;;;7.60;1.00;;;;;;5074121;28;20798;-80
2021/12/25 06:30:05;;;;;;;25.00;16.27;;;7.40;1.00;;;;;;5073713;28;20267;-80
2021/12/25 06:32:34;;;;;;;21.33;13.00;;;7.40;1.00;;;;;;5074097;28;20237;-80
2021/12/25 06:35:01;;;;;;;17.17;13.00;;;7.30;1.00;;;;;;5073463;28;20210;-80
2021/12/25 06:37:28;;;;;;;22.77;16.00;;;7.30;1.00;;;;;;5074016;28;20251;-81
2021/12/25 06:39:55;;;;;;;25.83;15.13;;;7.30;1.00;;;;;;5073836;28;20213;-82
2021/12/25 06:42:22;;;;;;;23.43;14.23;;;7.30;1.00;;;;;;5073649;28;20631;-82
2021/12/25 06:44:49;;;;;;;19.53;13.97;;;7.20;1.00;;;;;;5073796;28;20198;-81
2021/12/25 06:47:16;;;;;;;20.67;14.60;;;7.20;1.00;;;;;;5074018;28;20658;-81
2021/12/25 06:49:44;;;;;;;20.27;13.83;;;7.20;1.00;;;;;;5073719;28;20246;-80
2021/12/25 06:52:11;;;;;;;21.40;14.43;;;7.20;1.00;;;;;;5073751;28;20230;-81
2021/12/25 06:54:39;;;;;;;19.13;13.83;;;7.10;1.00;;;;;;5074225;28;20202;-81
2021/12/25 06:57:06;;;;;;;18.40;13.70;;;7.30;1.00;;;;;;5073670;28;20615;-80
2021/12/25 06:59:33;;;;;;;20.13;13.17;;;7.30;1.00;;;;;;5073820;28;20206;-80
2021/12/25 07:02:00;;;;;;;21.43;14.33;;;7.30;1.00;;;;;;5073565;28;20670;-81
2021/12/25 07:04:27;;;;;;;20.93;12.97;;;7.30;1.00;;;;;;5074101;28;20694;-84
2021/12/25 07:06:55;;;;;;;16.43;12.27;;;7.20;1.00;;;;;;5073168;28;20206;-77
2021/12/25 07:09:22;;;;;;;20.50;14.00;;;7.10;1.00;;;;;;5073212;28;20252;-80
2021/12/25 07:11:49;;;;;;;16.87;12.97;;;7.20;1.00;;;;;;5072933;28;20705;-79
2021/12/25 07:14:16;;;;;;;22.00;13.90;;;7.10;1.00;;;;;;5073483;28;20255;-78
2021/12/25 07:16:43;;;;;;;20.87;13.23;;;7.10;1.00;;;;;;5072745;28;20201;-77
2021/12/25 07:19:15;;;;;;;19.90;12.37;;;7.20;1.00;;;;;;5073143;28;20206;-84
2021/12/25 07:21:42;;;;;;;18.63;11.93;;;7.30;1.00;;;;;;5073991;28;20669;-81
2021/12/25 07:24:12;;;;;;;21.63;12.33;;;7.20;1.00;;;;;;5073762;28;20223;-82
2021/12/25 07:26:39;;;;;;;16.83;11.77;;;7.30;1.00;;;;;;5074916;28;20200;-80
2021/12/25 07:29:07;;;;;;;17.20;12.27;;;7.30;1.00;;;;;;5092525;28;20230;-82
2021/12/25 07:31:34;;;;;;;20.70;13.33;;;7.30;1.00;;;;;;5092941;28;20270;-82
2021/12/25 07:34:02;;;;;;;17.20;11.37;;;7.50;1.00;;;;;;5093041;28;20704;-81
2021/12/25 07:36:29;;;;;;;17.90;12.30;;;7.50;1.00;;;;;;5092076;28;20250;-77
2021/12/25 07:38:56;;;;;;;17.57;11.67;;;7.60;1.00;;;;;;5082779;28;20211;-73
2021/12/25 07:41:25;;;;;;;17.03;11.27;;;7.70;1.00;;;;;;5087964;28;20241;-80
2021/12/25 07:43:52;;;;;;;18.03;12.50;;;7.60;1.00;;;;;;5088828;28;20201;-79
2021/12/25 07:46:22;;;;;;;17.33;12.63;;;7.70;1.00;;;;;;5092704;28;20726;-78
2021/12/25 07:48:49;;;;;;;18.87;13.73;;;7.70;1.00;;;;;;5092289;28;20548;-78
2021/12/25 07:51:16;;;;;;;16.23;11.33;;;7.80;1.00;;;;;;5092021;28;20225;-77
2021/12/25 07:53:43;;;;;;;18.93;12.23;;;7.80;1.00;;;;;;5091811;28;20254;-76
2021/12/25 07:56:10;;;;;;;16.10;11.10;;;7.80;1.00;;;;;;5092751;28;20202;-77
2021/12/25 07:58:39;;;;;;;14.87;11.73;;;7.80;1.00;;;;;;5093066;28;20210;-77
2021/12/25 08:01:07;;;;;;;14.03;10.60;;;7.80;1.00;;;;;;5092091;28;20677;-77
2021/12/25 08:03:35;;;;;;;16.37;12.97;;;7.70;1.00;;;;;;5092498;28;20287;-78
2021/12/25 08:06:02;;;;;;;19.17;13.50;;;7.80;1.00;;;;;;5091039;28;20220;-76
2021/12/25 08:08:29;;;;;;;23.27;16.10;;;7.80;1.00;;;;;;5092103;28;20209;-76
2021/12/25 08:10:56;;;;;;;18.77;12.57;;;7.90;1.00;;;;;;5088665;28;20198;-76
2021/12/25 08:13:23;;;;;;;23.23;14.17;;;8.00;1.00;;;;;;5091456;28;20657;-76
2021/12/25 08:15:52;;;;;;;16.57;12.73;;;8.20;1.00;;;;;;5091668;28;20247;-80
2021/12/25 08:18:19;;;;;;;16.93;13.93;;;8.30;1.00;;;;;;5091874;28;20556;-77
2021/12/25 08:20:48;;;;;;;19.73;14.20;;;8.30;1.00;;;;;;5091056;28;20197;-77
2021/12/25 08:23:16;;;;;;;23.43;16.37;;;8.40;1.00;;;;;;5077133;28;20213;-79
2021/12/25 08:25:43;;;;;;;24.50;16.57;;;8.20;1.00;;;;;;5073988;28;20713;-77
2021/12/25 08:28:10;;;;;;;21.87;16.20;;;8.00;1.00;;;;;;5078028;28;20214;-71
2021/12/25 08:30:37;;;;;;;18.40;14.47;;;8.00;1.00;;;;;;5071407;28;20308;-74
2021/12/25 08:33:06;;;;;;;21.40;15.27;;;8.10;1.00;;;;;;5083401;28;20230;-74
2021/12/25 08:35:33;;;;;;;23.10;14.90;;;8.40;1.00;;;;;;5082908;28;20205;-72
2021/12/25 08:38:00;;;;;;;33.47;20.40;;;8.80;1.00;;;;;;5091227;28;20202;-73
2021/12/25 08:40:28;;;;;;;22.70;15.17;;;9.70;1.00;;;;;;5090079;28;20592;-78
2021/12/25 08:43:00;;;;;;;19.50;13.60;;;10.10;1.00;;;;;;5085554;28;20209;-77
2021/12/25 08:45:42;;;;;;;16.60;12.50;;;10.70;1.00;;;;;;5089391;28;20212;-73
2021/12/25 08:48:15;;;;;;;16.20;12.00;;;10.70;1.00;;;;;;5089895;28;20201;-78
2021/12/25 08:50:45;;;;;;;17.33;11.57;;;10.50;1.00;;;;;;5090802;28;20197;-83
2021/12/25 08:53:12;;;;;;;16.53;11.93;;;9.90;1.00;;;;;;5090803;28;20270;-75
2021/12/25 08:55:39;;;;;;;15.00;11.43;;;9.70;1.00;;;;;;5091697;28;20734;-74
2021/12/25 08:58:06;;;;;;;15.23;11.67;;;9.80;1.00;;;;;;5077260;28;20225;-74
2021/12/25 09:00:33;;;;;;;14.53;11.67;;;10.40;1.00;;;;;;5090855;28;20201;-77
2021/12/25 09:03:00;;;;;;;13.63;10.10;;;10.60;1.00;;;;;;5090815;28;20205;-77
2021/12/25 09:05:29;;;;;;;14.00;11.30;;;10.60;1.00;;;;;;5090936;28;20763;-77
2021/12/25 09:07:56;;;;;;;12.43;10.10;;;11.60;1.00;;;;;;5091250;28;20202;-78
2021/12/25 09:10:23;;;;;;;13.43;10.50;;;12.30;1.00;;;;;;5096222;28;20205;-81
2021/12/25 09:12:50;;;;;;;16.07;12.20;;;12.60;1.00;;;;;;5104045;28;20221;-77
2021/12/25 09:15:18;;;;;;;13.20;10.23;;;11.80;1.00;;;;;;5100141;28;20221;-80
2021/12/25 09:17:46;;;;;;;9.20;8.10;;;11.80;1.00;;;;;;5108878;28;20248;-78
2021/12/25 09:20:15;;;;;;;8.00;7.17;;;11.90;1.00;;;;;;5096590;28;20212;-82
2021/12/25 09:22:44;;;;;;;11.13;7.97;;;11.90;1.00;;;;;;5091423;28;20235;-74
2021/12/25 09:25:11;;;;;;;13.50;9.07;;;11.40;1.00;;;;;;5091771;28;20746;-76
2021/12/25 09:27:38;;;;;;;11.63;9.45;;;11.20;1.00;;;;;;5091113;28;20630;-79
2021/12/25 09:30:07;;;;;;;11.98;8.38;;;11.70;1.00;;;;;;5090695;28;20267;-74
2021/12/25 09:32:34;;;;;;;12.50;10.48;;;11.70;1.00;;;;;;5088706;28;20636;-75
2021/12/25 09:35:01;;;;;;;13.43;10.25;;;11.30;1.00;;;;;;5090240;28;20210;-77
2021/12/25 09:37:28;;;;;;;15.27;10.73;;;10.90;1.00;;;;;;5084764;28;20223;-77
2021/12/25 09:39:57;;;;;;;13.52;10.73;;;11.30;1.00;;;;;;5095750;28;20206;-77
2021/12/25 09:42:25;;;;;;;15.52;10.43;;;11.20;1.00;;;;;;5090124;28;20251;-75
2021/12/25 09:44:52;;;;;;;15.55;10.48;;;11.70;1.00;;;;;;5089944;28;20206;-78
2021/12/25 09:47:19;;;;;;;16.43;11.53;;;12.20;1.00;;;;;;5091397;28;20198;-77
2021/12/25 09:49:47;;;;;;;11.98;8.85;;;13.50;1.00;;;;;;5085478;28;20615;-81
2021/12/25 09:52:14;;;;;;;14.50;10.82;;;12.70;1.00;;;;;;5093072;28;20282;-77
2021/12/25 09:54:41;;;;;;;12.93;9.65;;;14.70;1.00;;;;;;5095103;28;20598;-75
2021/12/25 09:57:09;;;;;;;11.48;9.70;;;16.00;1.00;;;;;;5095129;28;20202;-77
2021/12/25 09:59:36;;;;;;;14.52;10.15;;;15.20;1.00;;;;;;5086789;28;20670;-79
2021/12/25 10:02:04;;;;;;;14.63;11.30;;;17.40;1.00;;;;;;5086662;28;20214;-81
2021/12/25 10:04:35;;;;;;;12.65;9.90;;;18.90;1.00;;;;;;5081182;28;20266;-80
2021/12/25 10:07:18;;;;;;;12.75;10.10;;;16.70;1.00;;;;;;5094594;28;20320;-79
2021/12/25 10:09:59;;;;;;;14.40;10.90;;;13.80;1.00;;;;;;5094351;28;20201;-78
2021/12/25 10:12:36;;;;;;;15.55;11.82;;;12.10;1.00;;;;;;5080208;28;20328;-81
2021/12/25 10:15:06;;;;;;;14.13;11.70;;;12.50;1.00;;;;;;5073861;28;20205;-76
2021/12/25 10:17:33;;;;;;;13.48;10.65;;;12.70;1.00;;;;;;5074468;28;20259;-80
2021/12/25 10:20:11;;;;;;;17.83;13.23;;;12.60;1.00;;;;;;5073579;28;20229;-75
2021/12/25 10:22:58;;;;;;;11.20;9.77;;;13.00;1.00;;;;;;5074216;28;20206;-77
2021/12/25 10:25:32;;;;;;;16.50;11.32;;;12.50;1.00;;;;;;5074247;28;20233;-77
2021/12/25 10:28:03;;;;;;;15.88;14.00;;;12.30;1.00;;;;;;5091680;28;20824;-76
2021/12/25 10:30:30;;;;;;;14.00;11.52;;;11.80;1.00;;;;;;5094054;28;20258;-77
2021/12/25 10:32:58;;;;;;;16.88;11.73;;;11.50;1.00;;;;;;5093494;28;20244;-77
2021/12/25 10:35:27;;;;;;;18.17;12.30;;;11.60;1.00;;;;;;5086259;28;20258;-82
2021/12/25 10:37:55;;;;;;;15.90;11.55;;;11.30;1.00;;;;;;5087059;28;20204;-82
2021/12/25 10:40:27;;;;;;;15.77;10.02;;;11.50;1.00;;;;;;5089785;28;20306;-82
2021/12/25 10:42:57;;;;;;;18.05;12.75;;;11.40;1.00;;;;;;5088296;28;20528;-84
2021/12/25 10:45:28;;;;;;;15.98;10.30;;;11.10;1.00;;;;;;5083165;28;20738;-81
2021/12/25 10:48:05;;;;;;;14.52;9.00;;;11.10;1.00;;;;;;5094189;28;20260;-83
2021/12/25 10:50:36;;;;;;;15.50;10.13;;;11.20;1.00;;;;;;5107886;28;20212;-81
2021/12/25 10:53:21;;;;;;;14.20;8.88;;;11.10;1.00;;;;;;5111291;28;20327;-84
2021/12/25 10:55:48;;;;;;;13.30;9.27;;;11.20;1.00;;;;;;5104113;28;20266;-83
2021/12/25 10:58:20;;;;;;;11.03;8.30;;;11.40;1.00;;;;;;5095067;28;20259;-84
2021/12/25 11:00:54;;;;;;;12.18;9.38;;;11.30;1.00;;;;;;5093607;28;20737;-84
2021/12/25 11:03:29;;;;;;;15.37;10.20;;;11.10;1.00;;;;;;5093389;28;20233;-86
2021/12/25 11:06:02;;;;;;;14.17;9.93;;;11.10;1.00;;;;;;5093876;28;20205;-81
2021/12/25 11:08:30;;;;;;;15.47;8.57;;;11.00;1.00;;;;;;5093787;28;20202;-82
2021/12/25 11:10:59;;;;;;;14.70;9.63;;;11.20;1.00;;;;;;5093315;28;20233;-82
2021/12/25 11:13:28;;;;;;;18.63;11.07;;;11.40;1.00;;;;;;5093298;28;20278;-85
2021/12/25 11:16:04;;;;;;;14.80;9.63;;;11.20;1.00;;;;;;5093369;28;20254;-83
2021/12/25 11:18:32;;;;;;;15.40;9.37;;;11.30;1.00;;;;;;5094199;28;20197;-85
2021/12/25 11:21:00;;;;;;;16.07;11.20;;;11.30;1.00;;;;;;5093254;28;20260;-85
2021/12/25 11:23:29;;;;;;;14.10;9.83;;;11.60;1.00;;;;;;5093524;28;20197;-92
2021/12/25 11:25:56;;;;;;;14.57;9.87;;;11.70;1.00;;;;;;5093231;28;20289;-87
2021/12/25 11:28:23;;;;;;;14.67;11.33;;;11.50;1.00;;;;;;5093920;28;20246;-88
2021/12/25 11:30:52;;;;;;;13.53;9.87;;;11.50;1.00;;;;;;5092447;28;20255;-83
2021/12/25 11:33:21;;;;;;;14.27;10.73;;;11.50;1.00;;;;;;5088304;28;20241;-79
2021/12/25 11:35:48;;;;;;;15.47;11.57;;;11.60;1.00;;;;;;5092072;28;20201;-81
2021/12/25 11:38:16;;;;;;;16.27;12.83;;;11.60;1.00;;;;;;5092218;28;20742;-81
2021/12/25 11:40:49;;;;;;;17.20;10.97;;;11.60;1.00;;;;;;5092288;28;20208;-81
2021/12/25 11:43:17;;;;;;;16.55;11.35;;;11.40;1.00;;;;;;5098713;28;20196;-83
2021/12/25 11:45:51;;;;;;;18.33;15.67;;;11.90;1.00;;;;;;5099110;28;20258;-85
2021/12/25 11:48:22;;;;;;;18.60;14.60;;;12.10;1.00;;;;;;5093425;28;20224;-84
2021/12/25 11:50:52;;;;;;;19.58;13.93;;;11.80;1.00;;;;;;5094008;28;20746;-85
2021/12/25 11:53:24;;;;;;;19.25;15.13;;;11.80;1.00;;;;;;5092029;28;20227;-85
2021/12/25 11:58:54;;;;;;;24.37;14.77;;;11.70;1.00;;;;;;5093247;28;20224;-87
2021/12/25 12:01:28;;;;;;;19.88;14.65;;;11.80;1.00;;;;;;5091830;28;20625;-86
2021/12/25 12:03:57;;;;;;;20.80;15.20;;;12.10;1.00;;;;;;5092492;28;20737;-84
2021/12/25 12:06:56;;;;;;;18.80;14.32;;;11.90;1.00;;;;;;5092811;28;20271;-85
2021/12/25 12:09:25;;;;;;;17.70;14.30;;;11.80;1.00;;;;;;5093386;28;20288;-82
2021/12/25 12:12:13;;;;;;;20.35;14.25;;;11.90;1.00;;;;;;5092582;28;20206;-85
2021/12/25 12:14:40;;;;;;;18.33;11.13;;;12.10;1.00;;;;;;5091875;28;20602;-83
2021/12/25 12:17:09;;;;;;;18.17;12.70;;;12.10;1.00;;;;;;5092594;28;20305;-84
2021/12/25 12:19:50;;;;;;;21.48;13.23;;;13.50;1.00;;;;;;5092961;28;20198;-84
2021/12/25 12:28:50;;;;;;;17.52;12.30;;;12.80;1.00;;;;;;5010602;28;20204;-84
2021/12/25 12:31:46;;;;;;;17.42;13.93;;;12.80;1.00;;;;;;5066520;28;20198;-84
2021/12/25 12:34:35;;;;;;;14.30;11.65;;;12.50;1.00;;;;;;5048536;28;20661;-83
2021/12/25 12:37:27;;;;;;;15.25;10.57;;;12.50;1.00;;;;;;5078927;28;20673;-84
2021/12/25 12:40:21;;;;;;;14.70;11.52;;;12.60;1.00;;;;;;5092174;28;20251;-83
2021/12/25 12:42:52;;;;;;;15.85;12.15;;;12.50;1.00;;;;;;5091789;28;20201;-85
2021/12/25 12:45:22;;;;;;;12.18;10.48;;;12.70;1.00;;;;;;5092601;28;20208;-87
2021/12/25 12:48:11;;;;;;;12.77;9.40;;;12.50;1.00;;;;;;5092234;28;20205;-84
2021/12/25 12:50:39;;;;;;;14.60;12.05;;;12.40;1.00;;;;;;5092940;28;20198;-86
2021/12/25 12:53:09;;;;;;;11.85;9.70;;;12.30;1.00;;;;;;5092003;28;20229;-86
2021/12/25 12:55:38;;;;;;;12.47;9.53;;;12.40;1.00;;;;;;5092795;28;20206;-88
2021/12/25 12:58:12;;;;;;;11.38;8.50;;;12.00;1.00;;;;;;5092433;28;20247;-87
2021/12/25 13:00:40;;;;;;;11.73;10.50;;;12.10;1.00;;;;;;5109760;28;20201;-80
2021/12/25 13:03:07;;;;;;;11.10;9.77;;;12.10;1.00;;;;;;5107205;27;20262;-88
2021/12/25 13:05:38;;;;;;;11.88;10.30;;;12.30;1.00;;;;;;5091659;28;20258;-83
2021/12/25 13:08:18;;;;;;;13.77;10.00;;;12.20;1.00;;;;;;5091413;28;20570;-82
2021/12/25 13:10:51;;;;;;;14.65;10.27;;;12.20;1.00;;;;;;5091158;28;20251;-79
2021/12/25 13:13:21;;;;;;;12.75;10.68;;;12.10;1.00;;;;;;5090831;28;20229;-80
2021/12/25 13:15:55;;;;;;;12.87;10.10;;;12.00;1.00;;;;;;5087383;28;20289;-80
2021/12/25 13:18:28;;;;;;;10.77;9.47;;;12.10;1.00;;;;;;5088026;28;20574;-79
2021/12/25 13:20:55;;;;;;;14.25;10.68;;;12.30;1.00;;;;;;5096592;28;20225;-80
2021/12/25 13:23:26;;;;;;;14.70;11.75;;;12.40;1.00;;;;;;5089940;28;20258;-80
2021/12/25 13:25:56;;;;;;;12.77;10.20;;;12.40;1.00;;;;;;5087402;28;20617;-80
2021/12/25 13:28:24;;;;;;;12.60;9.98;;;12.40;1.00;;;;;;5087510;28;20194;-81
2021/12/25 13:30:54;;;;;;;10.30;8.32;;;12.30;1.00;;;;;;5089455;28;20639;-80
2021/12/25 13:33:23;;;;;;;11.57;9.15;;;12.30;1.00;;;;;;5089310;28;20224;-83
2021/12/25 13:36:01;;;;;;;14.35;10.05;;;12.30;1.00;;;;;;5087832;28;20201;-82
2021/12/25 13:38:29;;;;;;;13.75;10.30;;;12.40;1.00;;;;;;5088216;28;20201;-81
2021/12/25 13:40:56;;;;;;;11.13;8.95;;;12.20;1.00;;;;;;5090364;28;20205;-83
2021/12/25 13:43:23;;;;;;;10.93;8.93;;;12.50;1.00;;;;;;5089687;28;20325;-77
2021/12/25 13:45:58;;;;;;;13.13;9.45;;;12.50;1.00;;;;;;5084853;28;20210;-84
2021/12/25 13:48:25;;;;;;;10.88;8.80;;;12.70;1.00;;;;;;5075649;28;20270;-80
2021/12/25 13:50:52;;;;;;;11.65;8.70;;;12.90;1.00;;;;;;5086724;28;20197;-81
2021/12/25 13:53:19;;;;;;;11.95;8.45;;;13.00;1.00;;;;;;5087518;28;20290;-80
2021/12/25 13:55:49;;;;;;;12.15;9.10;;;13.00;1.00;;;;;;5086019;28;20232;-81
2021/12/25 13:58:17;;;;;;;10.65;8.10;;;13.10;1.00;;;;;;5086927;28;20299;-81
2021/12/25 14:00:48;;;;;;;9.25;7.28;;;13.00;1.00;;;;;;5086381;28;20274;-77